John H. — WAC6768 — position and weather

sailwx.info

Track history (hours):
 
Tides and Currents Weather Stations Pressure Air Temp Water Temp Dewpoint Dewpoint Depression Visibility Wind Speed Wind Dir Waves Ship Positions

John H.

Owner: CROSS SOUND FERRY SERVICE INC, NEW LOUDON, CT. More information available from US FCC via Universal Licensing System and Coast Guard Vessel Documentation Center.

Last reported at 2016-May-30 01:33 UTC. Time now 2016-May-30 14:37 UTC.
Position N 41°14' W 072°11'.

Length 70 m.

Type: Passenger vessel. MMSI: 366934890.

Date/timePositionNaut miles runAvg speedWind from/ knotsBaromVisibWave heightAir tempDewpointWater temp
2016-May-30 01:33N 41°14' W 072°11'1 0.6
2016-May-29 23:33N 41°13' W 072°10'5 3.4
2016-May-29 22:12N 41°09' W 072°13'812.3
2016-May-29 21:33N 41°16' W 072°07'4 2.2
2016-May-29 19:32N 41°13' W 072°11'4 3.7
2016-May-29 18:20N 41°09' W 072°14'911.9
2016-May-29 17:33N 41°17' W 072°07'6 1.8
2016-May-29 14:04N 41°12' W 072°12'1 0.4
2016-May-29 11:26N 41°12' W 072°11'4 0.4
2016-May-29 02:11N 41°09' W 072°14'5 8.6
2016-May-29 01:33N 41°14' W 072°10'0 0.2
2016-May-28 23:34N 41°14' W 072°09'5 3.9
2016-May-28 22:15N 41°09' W 072°13'811.6
2016-May-28 21:32N 41°16' W 072°07'4 1.9
2016-May-28 19:33N 41°13' W 072°10'5 3.5
2016-May-28 18:15N 41°09' W 072°13'912.7
2016-May-28 17:33N 41°17' W 072°07'3 0.6
2016-May-28 11:33N 41°14' W 072°09'6 0.6
2016-May-28 02:08N 41°09' W 072°14'710.8
2016-May-28 01:30N 41°15' W 072°09'1 0.4
2016-May-27 23:32N 41°14' W 072°09'6 4.6
2016-May-27 22:16N 41°09' W 072°14'811.3
2016-May-27 21:33N 41°16' W 072°08'3 1.3
2016-May-27 19:33N 41°14' W 072°10'6 4.4
2016-May-27 18:15N 41°09' W 072°14'912.4
2016-May-27 17:33N 41°16' W 072°08'2 0.4
2016-May-27 11:32N 41°14' W 072°09'6 0.6
2016-May-27 02:04N 41°09' W 072°14'5 9.9
2016-May-27 01:33N 41°13' W 072°11'1 0.5
2016-May-26 23:34N 41°14' W 072°09'4 3.1
2016-May-26 22:13N 41°11' W 072°13'4 1.4
2016-May-26 19:33N 41°13' W 072°10'4 2.8
2016-May-26 18:06N 41°10' W 072°13'713.1
2016-May-26 17:33N 41°16' W 072°08'5 2.2
2016-May-26 15:24N 41°12' W 072°12'2 1.8
2016-May-26 14:06N 41°10' W 072°14'5 1.9
2016-May-26 11:34N 41°14' W 072°09'5 0.4
2016-May-26 00:12N 41°10' W 072°13'2 0.9
2016-May-25 21:25N 41°12' W 072°11'0 0.0
2016-May-25 17:25N 41°12' W 072°12'1 0.3
2016-May-25 13:21N 41°11' W 072°13'8 0.6
2016-May-25 00:32N 41°17' W 072°05'11 5.0
2016-May-24 22:24N 41°09' W 072°14'910.7
2016-May-24 21:33N 41°16' W 072°07'3 0.3
2016-May-24 11:33N 41°14' W 072°09'3 0.3
2016-May-24 00:27N 41°12' W 072°13'9 3.6
2016-May-23 22:03N 41°18' W 072°05'713.5
2016-May-23 21:32N 41°13' W 072°11'1 1.0
2016-May-23 20:08N 41°12' W 072°12'0 0.1
2016-May-23 17:27N 41°12' W 072°12'0 0.1
2016-May-23 13:29N 41°12' W 072°12'2 1.6
2016-May-23 12:07N 41°11' W 072°14'6 0.6
2016-May-23 01:29N 41°15' W 072°08'7 6.4
2016-May-23 00:19N 41°09' W 072°14'911.6
2016-May-22 23:33N 41°16' W 072°07'3 1.7
2016-May-22 21:33N 41°13' W 072°10'4 3.3
2016-May-22 20:14N 41°10' W 072°13'811.4
2016-May-22 19:32N 41°16' W 072°07'4 1.9
2016-May-22 17:33N 41°13' W 072°10'5 4.1
2016-May-22 16:18N 41°09' W 072°14'11 0.7
2016-May-22 00:14N 41°18' W 072°05'811.3
2016-May-21 23:32N 41°13' W 072°13'4 3.1
2016-May-21 22:20N 41°09' W 072°14'910.8
2016-May-21 21:31N 41°16' W 072°07'4 1.8
2016-May-21 19:33N 41°13' W 072°10'5 4.7
2016-May-21 18:26N 41°09' W 072°14'910.5
2016-May-21 17:33N 41°16' W 072°07'6 2.7
2016-May-21 15:28N 41°12' W 072°12'2 1.7
2016-May-21 14:06N 41°11' W 072°14'4 1.6
2016-May-21 11:33N 41°13' W 072°10'1 0.1
2016-May-21 01:33N 41°14' W 072°11'6 4.2
2016-May-21 00:03N 41°18' W 072°05'612.0
2016-May-20 23:33N 41°13' W 072°10'5 4.2
2016-May-20 22:19N 41°09' W 072°14'911.2
2016-May-20 21:33N 41°16' W 072°07'8 1.0
2016-May-20 14:11N 41°10' W 072°13'2 0.8
2016-May-20 11:22N 41°12' W 072°12'  
Track history (hours):
 
Tides and Currents Weather Stations Pressure Air Temp Water Temp Dewpoint Dewpoint Depression Visibility Wind Speed Wind Dir Waves Ship Positions

John H.

Owner: CROSS SOUND FERRY SERVICE INC, NEW LOUDON, CT. More information available from US FCC via Universal Licensing System and Coast Guard Vessel Documentation Center.

Last reported at 2016-May-30 01:33 UTC. Time now 2016-May-30 14:37 UTC.
Position N 41°14' W 072°11'.

Length 70 m.

Type: Passenger vessel. MMSI: 366934890.

Date/timePositionNaut miles runAvg speedWind from/ knotsBaromVisibWave heightAir tempDewpointWater temp
2016-May-30 01:33N 41°14' W 072°11'1 0.6
2016-May-29 23:33N 41°13' W 072°10'5 3.4
2016-May-29 22:12N 41°09' W 072°13'812.3
2016-May-29 21:33N 41°16' W 072°07'4 2.2
2016-May-29 19:32N 41°13' W 072°11'4 3.7
2016-May-29 18:20N 41°09' W 072°14'911.9
2016-May-29 17:33N 41°17' W 072°07'6 1.8
2016-May-29 14:04N 41°12' W 072°12'1 0.4
2016-May-29 11:26N 41°12' W 072°11'4 0.4
2016-May-29 02:11N 41°09' W 072°14'5 8.6
2016-May-29 01:33N 41°14' W 072°10'0 0.2
2016-May-28 23:34N 41°14' W 072°09'5 3.9
2016-May-28 22:15N 41°09' W 072°13'811.6
2016-May-28 21:32N 41°16' W 072°07'4 1.9
2016-May-28 19:33N 41°13' W 072°10'5 3.5
2016-May-28 18:15N 41°09' W 072°13'912.7
2016-May-28 17:33N 41°17' W 072°07'3 0.6
2016-May-28 11:33N 41°14' W 072°09'6 0.6
2016-May-28 02:08N 41°09' W 072°14'710.8
2016-May-28 01:30N 41°15' W 072°09'1 0.4
2016-May-27 23:32N 41°14' W 072°09'6 4.6
2016-May-27 22:16N 41°09' W 072°14'811.3
2016-May-27 21:33N 41°16' W 072°08'3 1.3
2016-May-27 19:33N 41°14' W 072°10'6 4.4
2016-May-27 18:15N 41°09' W 072°14'912.4
2016-May-27 17:33N 41°16' W 072°08'2 0.4
2016-May-27 11:32N 41°14' W 072°09'6 0.6
2016-May-27 02:04N 41°09' W 072°14'5 9.9
2016-May-27 01:33N 41°13' W 072°11'1 0.5
2016-May-26 23:34N 41°14' W 072°09'4 3.1
2016-May-26 22:13N 41°11' W 072°13'4 1.4
2016-May-26 19:33N 41°13' W 072°10'4 2.8
2016-May-26 18:06N 41°10' W 072°13'713.1
2016-May-26 17:33N 41°16' W 072°08'5 2.2
2016-May-26 15:24N 41°12' W 072°12'2 1.8
2016-May-26 14:06N 41°10' W 072°14'5 1.9
2016-May-26 11:34N 41°14' W 072°09'5 0.4
2016-May-26 00:12N 41°10' W 072°13'2 0.9
2016-May-25 21:25N 41°12' W 072°11'0 0.0
2016-May-25 17:25N 41°12' W 072°12'1 0.3
2016-May-25 13:21N 41°11' W 072°13'8 0.6
2016-May-25 00:32N 41°17' W 072°05'11 5.0
2016-May-24 22:24N 41°09' W 072°14'910.7
2016-May-24 21:33N 41°16' W 072°07'3 0.3
2016-May-24 11:33N 41°14' W 072°09'3 0.3
2016-May-24 00:27N 41°12' W 072°13'9 3.6
2016-May-23 22:03N 41°18' W 072°05'713.5
2016-May-23 21:32N 41°13' W 072°11'1 1.0
2016-May-23 20:08N 41°12' W 072°12'0 0.1
2016-May-23 17:27N 41°12' W 072°12'0 0.1
2016-May-23 13:29N 41°12' W 072°12'2 1.6
2016-May-23 12:07N 41°11' W 072°14'6 0.6
2016-May-23 01:29N 41°15' W 072°08'7 6.4
2016-May-23 00:19N 41°09' W 072°14'911.6
2016-May-22 23:33N 41°16' W 072°07'3 1.7
2016-May-22 21:33N 41°13' W 072°10'4 3.3
2016-May-22 20:14N 41°10' W 072°13'811.4
2016-May-22 19:32N 41°16' W 072°07'4 1.9
2016-May-22 17:33N 41°13' W 072°10'5 4.1
2016-May-22 16:18N 41°09' W 072°14'11 0.7
2016-May-22 00:14N 41°18' W 072°05'811.3
2016-May-21 23:32N 41°13' W 072°13'4 3.1
2016-May-21 22:20N 41°09' W 072°14'910.8
2016-May-21 21:31N 41°16' W 072°07'4 1.8
2016-May-21 19:33N 41°13' W 072°10'5 4.7
2016-May-21 18:26N 41°09' W 072°14'910.5
2016-May-21 17:33N 41°16' W 072°07'6 2.7
2016-May-21 15:28N 41°12' W 072°12'2 1.7
2016-May-21 14:06N 41°11' W 072°14'4 1.6
2016-May-21 11:33N 41°13' W 072°10'1 0.1
2016-May-21 01:33N 41°14' W 072°11'6 4.2
2016-May-21 00:03N 41°18' W 072°05'612.0
2016-May-20 23:33N 41°13' W 072°10'5 4.2
2016-May-20 22:19N 41°09' W 072°14'911.2
2016-May-20 21:33N 41°16' W 072°07'8 1.0
2016-May-20 14:11N 41°10' W 072°13'2 0.8
2016-May-20 11:22N 41°12' W 072°12'  

Dump ship's entire track history